Time;durP1;ratioP1;P1;durP2;ratioP2;P2;SDS_P1;SDS_P2;PMS_P1;PMS_P2;Temp;Humidity;BMP_temperature;BMP_pressure;BME280_temperature;BME280_humidity;BME280_pressure;Samples;Min_cycle;Max_cycle;Signal;HPM_P1;HPM_P2
2022/12/04 00:01:24;;;;;;;79.80;43.50;;;1.40;1.00;;;;;;6189401;23;20335;-85
2022/12/04 00:03:53;;;;;;;72.15;43.58;;;1.40;1.00;;;;;;6233740;23;20237;-85
2022/12/04 00:06:25;;;;;;;78.72;45.28;;;1.30;1.00;;;;;;6226071;23;20199;-82
2022/12/04 00:08:52;;;;;;;79.10;45.63;;;1.30;1.00;;;;;;6227764;23;20267;-84
2022/12/04 00:11:25;;;;;;;82.32;45.70;;;1.30;1.00;;;;;;6216113;23;20198;-82
2022/12/04 00:13:54;;;;;;;76.30;44.30;;;1.30;1.00;;;;;;6218292;23;20222;-84
2022/12/04 00:16:24;;;;;;;78.93;44.08;;;1.20;1.00;;;;;;6226431;23;20211;-80
2022/12/04 00:18:52;;;;;;;70.15;42.92;;;1.30;1.00;;;;;;6187621;23;20218;-82
2022/12/04 00:21:23;;;;;;;72.10;44.63;;;1.30;1.00;;;;;;6192376;23;20214;-79
2022/12/04 00:23:51;;;;;;;88.00;45.88;;;1.30;1.00;;;;;;6204903;23;20221;-80
2022/12/04 00:26:27;;;;;;;84.25;46.00;;;1.40;1.00;;;;;;6204048;23;20186;-81
2022/12/04 00:29:04;;;;;;;80.18;43.95;;;1.40;1.00;;;;;;6199501;23;20223;-81
2022/12/04 00:31:32;;;;;;;86.97;47.10;;;1.30;1.00;;;;;;6187105;23;20351;-78
2022/12/04 00:34:02;;;;;;;77.13;46.45;;;1.30;1.00;;;;;;6227974;23;20233;-83
2022/12/04 00:36:32;;;;;;;78.80;45.88;;;1.30;1.00;;;;;;6191162;23;20286;-84
2022/12/04 00:39:03;;;;;;;81.85;45.70;;;1.30;1.00;;;;;;6225296;23;20218;-81
2022/12/04 00:41:33;;;;;;;79.80;46.38;;;1.30;1.00;;;;;;6199456;23;20705;-83
2022/12/04 00:44:05;;;;;;;73.32;41.90;;;1.30;1.00;;;;;;6151116;23;20283;-83
2022/12/04 00:46:33;;;;;;;82.65;43.80;;;1.20;1.00;;;;;;6191168;23;20276;-83
2022/12/04 00:49:02;;;;;;;78.65;45.95;;;1.20;1.00;;;;;;6200619;23;20188;-84
2022/12/04 00:51:30;;;;;;;76.93;44.38;;;1.20;1.00;;;;;;6199979;23;20296;-80
2022/12/04 00:54:02;;;;;;;78.20;43.90;;;1.20;1.00;;;;;;6183116;23;20311;-80
2022/12/04 00:56:32;;;;;;;72.53;44.45;;;1.30;1.00;;;;;;6197783;23;20232;-79
2022/12/04 00:59:02;;;;;;;79.35;45.67;;;1.20;1.00;;;;;;6198118;23;20228;-81
2022/12/04 01:01:31;;;;;;;82.72;45.45;;;1.20;1.00;;;;;;6177860;23;20219;-79
2022/12/04 01:04:04;;;;;;;88.00;45.50;;;1.30;1.00;;;;;;6190835;23;20217;-78
2022/12/04 01:06:34;;;;;;;80.28;43.83;;;1.30;1.00;;;;;;6167588;23;20221;-80
2022/12/04 01:09:05;;;;;;;94.20;48.47;;;1.30;1.00;;;;;;6176514;23;20220;-83
2022/12/04 01:11:32;;;;;;;83.03;47.78;;;1.30;1.00;;;;;;6185681;23;20224;-83
2022/12/04 01:14:02;;;;;;;86.82;46.75;;;1.30;1.00;;;;;;6156456;23;20223;-79
2022/12/04 01:16:33;;;;;;;87.47;49.10;;;1.20;1.00;;;;;;6181577;23;20302;-78
2022/12/04 01:19:06;;;;;;;78.90;46.70;;;1.30;1.00;;;;;;6158116;23;20216;-81
2022/12/04 01:21:33;;;;;;;87.13;47.08;;;1.20;1.00;;;;;;6184563;23;20373;-82
2022/12/04 01:24:03;;;;;;;87.90;47.13;;;1.20;1.00;;;;;;6155163;23;20232;-79
2022/12/04 01:26:30;;;;;;;82.53;49.00;;;1.30;1.00;;;;;;6166437;23;20207;-83
2022/12/04 01:29:02;;;;;;;84.28;47.15;;;1.30;1.00;;;;;;6195325;23;20211;-84
2022/12/04 01:31:33;;;;;;;89.35;49.22;;;1.20;1.00;;;;;;6197115;23;20207;-82
2022/12/04 01:34:04;;;;;;;88.80;47.05;;;1.20;1.00;;;;;;6196715;23;20638;-82
2022/12/04 01:36:31;;;;;;;91.45;47.75;;;1.20;1.00;;;;;;6196991;23;20315;-82
2022/12/04 01:39:04;;;;;;;82.20;46.17;;;1.10;1.00;;;;;;6197968;23;20210;-82
2022/12/04 01:41:32;;;;;;;89.95;47.33;;;1.10;1.00;;;;;;6197180;23;20215;-83
2022/12/04 01:44:16;;;;;;;85.72;47.53;;;1.10;1.00;;;;;;6196857;23;20211;-82
2022/12/04 01:46:47;;;;;;;88.50;47.45;;;1.10;1.00;;;;;;6199149;23;20198;-82
2022/12/04 01:49:22;;;;;;;87.45;46.13;;;1.20;1.00;;;;;;6198666;23;20225;-82
2022/12/04 01:51:52;;;;;;;90.28;50.88;;;1.20;1.00;;;;;;6200741;23;20281;-84
2022/12/04 01:54:27;;;;;;;88.97;47.60;;;1.20;1.00;;;;;;6198421;23;20224;-82
2022/12/04 01:57:04;;;;;;;83.55;48.92;;;1.30;1.00;;;;;;6200487;23;20226;-82
2022/12/04 01:59:35;;;;;;;85.32;47.25;;;1.30;1.00;;;;;;6198375;23;20386;-78
2022/12/04 02:02:09;;;;;;;93.65;47.92;;;1.30;1.00;;;;;;6197100;23;20254;-79
2022/12/04 02:04:37;;;;;;;84.32;48.35;;;1.40;1.00;;;;;;6197773;23;20211;-80
2022/12/04 02:07:08;;;;;;;92.82;50.05;;;1.40;1.00;;;;;;6198362;23;20208;-83
2022/12/04 02:09:38;;;;;;;83.90;47.28;;;1.40;1.00;;;;;;6201669;23;20949;-82
2022/12/04 02:12:17;;;;;;;84.68;46.38;;;1.30;1.00;;;;;;6201143;23;20203;-80
2022/12/04 02:14:55;;;;;;;85.40;47.25;;;1.40;1.00;;;;;;6201117;23;20204;-82
2022/12/04 02:17:38;;;;;;;94.00;49.58;;;1.40;1.00;;;;;;6199261;23;20207;-83
2022/12/04 02:20:28;;;;;;;91.55;49.22;;;1.30;1.00;;;;;;6199362;23;20986;-82
2022/12/04 02:23:19;;;;;;;82.75;48.30;;;1.40;1.00;;;;;;6198385;23;20215;-79
2022/12/04 02:25:57;;;;;;;95.63;49.22;;;1.40;1.00;;;;;;6201162;23;20227;-79
2022/12/04 02:28:40;;;;;;;89.88;50.20;;;1.40;1.00;;;;;;6201583;23;20231;-82
2022/12/04 02:31:13;;;;;;;90.38;47.30;;;1.40;1.00;;;;;;6200249;23;20213;-80
2022/12/04 02:33:50;;;;;;;87.05;47.20;;;1.40;1.00;;;;;;6199429;23;21357;-80
2022/12/04 02:36:20;;;;;;;90.15;49.88;;;1.30;1.00;;;;;;6196112;23;20216;-78
2022/12/04 02:38:56;;;;;;;94.80;47.70;;;1.30;1.00;;;;;;6195611;23;20217;-81
2022/12/04 02:41:36;;;;;;;86.70;47.05;;;1.30;1.00;;;;;;6198844;23;20249;-80
2022/12/04 02:44:14;;;;;;;98.50;52.47;;;1.30;1.00;;;;;;6195974;23;20238;-82
2022/12/04 02:46:48;;;;;;;95.32;47.50;;;1.20;1.00;;;;;;6186975;23;20930;-83
2022/12/04 02:49:30;;;;;;;89.78;51.15;;;1.20;1.00;;;;;;6200858;23;20243;-82
2022/12/04 02:51:59;;;;;;;94.80;48.80;;;1.20;1.00;;;;;;6199280;23;20266;-82
2022/12/04 02:54:35;;;;;;;94.88;48.30;;;1.20;1.00;;;;;;6198170;23;20227;-83
2022/12/04 02:57:11;;;;;;;90.45;50.63;;;1.20;1.00;;;;;;6200389;23;20224;-83
2022/12/04 02:59:43;;;;;;;91.68;49.38;;;1.20;1.00;;;;;;6201052;23;20714;-84
2022/12/04 03:02:17;;;;;;;96.68;49.35;;;1.20;1.00;;;;;;6197890;23;20219;-80
2022/12/04 03:04:56;;;;;;;94.65;50.17;;;1.20;1.00;;;;;;6198574;23;20192;-82
2022/12/04 03:07:34;;;;;;;86.10;48.03;;;1.20;1.00;;;;;;6198103;23;20207;-81
2022/12/04 03:10:09;;;;;;;89.25;49.45;;;1.20;1.00;;;;;;6200266;23;20218;-83
2022/12/04 03:12:40;;;;;;;97.00;50.42;;;1.20;1.00;;;;;;6201593;23;20989;-82
2022/12/04 03:15:17;;;;;;;98.85;48.72;;;1.30;1.00;;;;;;6198321;23;20201;-82
2022/12/04 03:17:56;;;;;;;93.45;49.30;;;1.30;1.00;;;;;;6198383;23;20251;-79
2022/12/04 03:20:29;;;;;;;89.47;50.70;;;1.30;1.00;;;;;;6197571;23;20224;-80
2022/12/04 03:23:00;;;;;;;94.90;50.67;;;1.30;1.00;;;;;;6197215;23;20226;-80
2022/12/04 03:25:35;;;;;;;90.70;49.83;;;1.20;1.00;;;;;;6195886;23;20211;-79
2022/12/04 03:28:12;;;;;;;98.55;49.97;;;1.30;1.00;;;;;;6196093;23;20211;-79
2022/12/04 03:30:50;;;;;;;88.07;48.20;;;1.30;1.00;;;;;;6197017;23;20303;-80
2022/12/04 03:33:21;;;;;;;92.70;50.47;;;1.40;1.00;;;;;;6196017;23;20216;-82
2022/12/04 03:35:56;;;;;;;85.32;49.97;;;1.30;1.00;;;;;;6195326;23;20237;-83
2022/12/04 03:38:35;;;;;;;89.30;49.95;;;1.30;1.00;;;;;;6183638;23;20215;-83
2022/12/04 03:41:09;;;;;;;84.63;47.25;;;1.30;1.00;;;;;;6197064;23;20215;-81
2022/12/04 03:43:48;;;;;;;91.38;51.00;;;1.30;1.00;;;;;;6209814;23;20937;-79
2022/12/04 03:46:28;;;;;;;90.68;49.63;;;1.30;1.00;;;;;;6228315;23;20236;-80
2022/12/04 03:49:11;;;;;;;89.00;47.13;;;1.30;1.00;;;;;;6230395;22;20225;-80
2022/12/04 03:51:48;;;;;;;85.68;44.85;;;1.30;1.00;;;;;;6226686;23;20776;-79
2022/12/04 03:54:17;;;;;;;94.30;50.63;;;1.30;1.00;;;;;;6228197;23;20213;-79
2022/12/04 03:56:53;;;;;;;89.43;49.95;;;1.30;1.00;;;;;;6229612;23;20205;-79
2022/12/04 03:59:34;;;;;;;96.78;51.53;;;1.30;1.00;;;;;;6230271;23;20553;-83
2022/12/04 04:02:12;;;;;;;95.72;49.42;;;1.40;1.00;;;;;;6230525;22;20218;-81
2022/12/04 04:04:42;;;;;;;92.45;46.90;;;1.40;1.00;;;;;;6230579;23;20221;-79
2022/12/04 04:07:16;;;;;;;91.50;47.40;;;1.40;1.00;;;;;;6227452;23;20291;-79
2022/12/04 04:09:50;;;;;;;89.78;47.42;;;1.40;1.00;;;;;;6229092;23;20252;-79
2022/12/04 04:12:20;;;;;;;87.22;49.88;;;1.40;1.00;;;;;;6226976;23;20892;-78
2022/12/04 04:26:12;;;;;;;81.00;45.55;;;1.50;1.00;;;;;;6227360;23;20211;-81
2022/12/04 04:28:41;;;;;;;82.60;46.20;;;1.50;1.00;;;;;;6229490;23;20213;-82
2022/12/04 04:31:17;;;;;;;81.80;46.58;;;1.60;1.00;;;;;;6230089;23;20219;-84
2022/12/04 04:33:57;;;;;;;83.90;47.63;;;1.50;1.00;;;;;;6229264;23;20259;-83
2022/12/04 04:36:36;;;;;;;91.18;49.78;;;1.50;1.00;;;;;;6227986;23;21052;-83
2022/12/04 04:39:15;;;;;;;89.97;49.88;;;1.50;1.00;;;;;;6227778;23;20861;-81
2022/12/04 04:41:54;;;;;;;76.05;44.78;;;1.60;1.00;;;;;;6213563;23;20209;-82
2022/12/04 04:44:32;;;;;;;80.15;46.33;;;1.60;1.00;;;;;;6226502;23;20212;-83
2022/12/04 04:47:08;;;;;;;79.45;44.88;;;1.60;1.00;;;;;;6227611;23;20224;-80
2022/12/04 04:49:39;;;;;;;82.88;43.95;;;1.60;1.00;;;;;;6229180;23;20243;-79
2022/12/04 04:52:09;;;;;;;87.65;47.25;;;1.50;1.00;;;;;;6226645;23;20216;-81
2022/12/04 04:54:38;;;;;;;84.88;45.42;;;1.50;1.00;;;;;;6234596;23;20243;-83
2022/12/04 04:57:11;;;;;;;86.85;45.20;;;1.50;1.00;;;;;;6231496;23;20197;-83
2022/12/04 04:59:38;;;;;;;80.68;44.60;;;1.50;1.00;;;;;;6229652;23;21011;-83
2022/12/04 05:02:12;;;;;;;84.68;46.67;;;1.60;1.00;;;;;;6231901;23;20212;-82
2022/12/04 05:04:48;;;;;;;90.95;47.55;;;1.70;1.00;;;;;;6230238;23;20217;-83
2022/12/04 05:07:15;;;;;;;78.03;43.00;;;1.70;1.00;;;;;;6229382;23;20218;-83
2022/12/04 05:09:47;;;;;;;80.50;46.65;;;1.70;1.00;;;;;;6230475;23;20245;-80
2022/12/04 05:12:14;;;;;;;81.75;45.83;;;1.70;1.00;;;;;;6231040;23;20381;-84
2022/12/04 05:14:41;;;;;;;83.13;45.53;;;1.70;1.00;;;;;;6234725;22;20202;-81
2022/12/04 05:17:10;;;;;;;79.55;44.75;;;1.70;1.00;;;;;;6232545;23;20200;-83
2022/12/04 05:19:55;;;;;;;86.80;46.55;;;1.70;1.00;;;;;;6225737;22;20219;-81
2022/12/04 05:22:34;;;;;;;77.55;44.75;;;1.70;1.00;;;;;;6220490;23;21075;-81
2022/12/04 05:25:03;;;;;;;83.25;45.78;;;1.70;1.00;;;;;;6227143;23;21466;-80
2022/12/04 05:27:34;;;;;;;78.72;45.25;;;1.70;1.00;;;;;;6201886;23;20193;-82
2022/12/04 05:30:12;;;;;;;86.57;46.13;;;1.70;1.00;;;;;;6212180;23;20220;-81
2022/12/04 05:32:44;;;;;;;74.13;41.45;;;1.70;1.00;;;;;;6210848;23;20214;-82
2022/12/04 05:35:14;;;;;;;78.60;44.92;;;1.70;1.00;;;;;;6179435;23;20221;-79
2022/12/04 05:37:45;;;;;;;77.90;44.80;;;1.70;1.00;;;;;;6203342;23;20258;-80
2022/12/04 05:40:13;;;;;;;74.13;45.50;;;1.70;1.00;;;;;;6195341;23;20218;-80
2022/12/04 05:42:49;;;;;;;76.25;44.58;;;1.70;1.00;;;;;;6221872;23;20210;-82
2022/12/04 05:45:33;;;;;;;78.10;45.60;;;1.90;1.00;;;;;;6175306;23;24889;-79
2022/12/04 05:48:04;;;;;;;75.28;43.97;;;1.80;1.00;;;;;;6211720;23;20216;-82
2022/12/04 05:50:33;;;;;;;81.43;44.78;;;1.80;1.00;;;;;;6215379;23;20201;-83
2022/12/04 05:53:03;;;;;;;69.57;41.83;;;1.80;1.00;;;;;;6233948;23;20216;-83
2022/12/04 05:55:33;;;;;;;78.03;45.85;;;1.90;1.00;;;;;;6228548;23;20212;-82
2022/12/04 05:58:04;;;;;;;83.50;44.22;;;2.00;1.00;;;;;;6212958;23;20221;-82
2022/12/04 06:00:34;;;;;;;87.75;45.45;;;2.00;1.00;;;;;;6196812;23;20218;-83
2022/12/04 06:03:02;;;;;;;76.38;40.70;;;2.00;1.00;;;;;;6175621;23;20315;-83
2022/12/04 06:05:33;;;;;;;73.85;42.55;;;2.20;1.00;;;;;;6199152;23;20599;-83
2022/12/04 06:08:16;;;;;;;82.63;43.30;;;2.20;1.00;;;;;;6184469;23;20221;-83
2022/12/04 06:10:54;;;;;;;75.70;42.05;;;2.20;1.00;;;;;;6196771;23;20211;-81
2022/12/04 06:13:25;;;;;;;76.00;44.20;;;2.10;1.00;;;;;;6204025;23;20214;-80
2022/12/04 06:15:56;;;;;;;83.15;42.92;;;2.10;1.00;;;;;;6229004;23;20229;-80
2022/12/04 06:18:29;;;;;;;81.70;46.97;;;2.10;1.00;;;;;;6229215;23;20216;-80
2022/12/04 06:20:58;;;;;;;78.45;45.47;;;2.10;1.00;;;;;;6231345;23;20219;-83
2022/12/04 06:23:31;;;;;;;76.05;44.58;;;2.20;1.00;;;;;;6227816;23;20214;-81
2022/12/04 06:26:08;;;;;;;71.55;44.30;;;2.10;1.00;;;;;;6229558;23;20209;-83
2022/12/04 06:28:35;;;;;;;74.13;42.28;;;2.20;1.00;;;;;;6227615;22;20215;-83
2022/12/04 06:31:09;;;;;;;79.25;43.72;;;2.30;1.00;;;;;;6225735;23;20237;-80
2022/12/04 06:33:36;;;;;;;74.32;42.38;;;2.30;1.00;;;;;;6225973;23;20218;-81
2022/12/04 06:36:11;;;;;;;71.80;41.67;;;2.30;1.00;;;;;;6226605;23;20196;-82
2022/12/04 06:38:48;;;;;;;74.20;43.92;;;2.20;1.00;;;;;;6228128;23;21059;-80
2022/12/04 06:41:18;;;;;;;75.20;44.08;;;2.30;1.00;;;;;;6227768;23;20210;-81
2022/12/04 06:43:49;;;;;;;75.25;42.33;;;2.10;1.00;;;;;;6222032;23;20216;-85
2022/12/04 06:46:18;;;;;;;72.03;42.15;;;2.10;1.00;;;;;;6226804;23;20238;-81
2022/12/04 06:48:47;;;;;;;77.82;43.58;;;2.10;1.00;;;;;;6228856;23;20200;-83
2022/12/04 06:51:17;;;;;;;67.53;40.30;;;2.20;1.00;;;;;;6225958;23;20218;-82
2022/12/04 06:53:52;;;;;;;72.50;43.03;;;2.30;1.00;;;;;;6228227;23;20238;-84
2022/12/04 06:56:27;;;;;;;77.65;43.50;;;2.30;1.00;;;;;;6229070;23;20247;-84
2022/12/04 06:58:57;;;;;;;66.53;40.03;;;2.30;1.00;;;;;;6212153;22;20255;-80
2022/12/04 07:01:29;;;;;;;75.53;42.95;;;2.30;1.00;;;;;;6229957;23;20224;-82
2022/12/04 07:03:56;;;;;;;74.80;44.25;;;2.20;1.00;;;;;;6231393;23;20211;-80
2022/12/04 07:06:29;;;;;;;74.28;41.88;;;2.30;1.00;;;;;;6228539;23;20217;-82
2022/12/04 07:08:59;;;;;;;74.70;42.55;;;2.30;1.00;;;;;;6230730;23;20218;-85
2022/12/04 07:11:28;;;;;;;83.57;47.47;;;2.30;1.00;;;;;;6232046;23;20202;-84
2022/12/04 07:13:56;;;;;;;78.10;44.00;;;2.30;1.00;;;;;;6230550;23;20261;-79
2022/12/04 07:16:28;;;;;;;74.28;44.67;;;2.40;1.00;;;;;;6229380;23;20207;-84
2022/12/04 07:18:57;;;;;;;77.60;43.33;;;2.30;1.00;;;;;;6230483;23;20219;-81
2022/12/04 07:21:29;;;;;;;81.03;43.22;;;2.30;1.00;;;;;;6230067;23;20214;-82
2022/12/04 07:24:02;;;;;;;73.90;42.35;;;2.30;1.00;;;;;;6232586;23;20218;-83
2022/12/04 07:26:30;;;;;;;71.05;42.72;;;2.30;1.00;;;;;;6232284;23;20240;-83
2022/12/04 07:29:09;;;;;;;63.92;35.55;;;2.30;1.00;;;;;;6230660;22;20285;-80
2022/12/04 07:31:36;;;;;;;72.18;41.65;;;2.30;1.00;;;;;;6228183;23;20234;-82
2022/12/04 07:34:07;;;;;;;68.85;41.90;;;2.40;1.00;;;;;;6227927;23;20250;-85
2022/12/04 07:36:37;;;;;;;92.40;51.10;;;2.40;1.00;;;;;;6229319;23;20968;-81
2022/12/04 07:39:07;;;;;;;74.68;42.20;;;2.30;1.00;;;;;;6228417;23;20206;-83
2022/12/04 07:41:35;;;;;;;69.95;40.80;;;2.30;1.00;;;;;;6233666;22;20950;-82
2022/12/04 07:44:07;;;;;;;72.82;42.05;;;2.50;1.00;;;;;;6225821;23;20216;-82
2022/12/04 07:46:40;;;;;;;75.78;41.95;;;2.50;1.00;;;;;;6224476;23;20296;-82
2022/12/04 07:49:13;;;;;;;78.07;42.53;;;2.60;1.00;;;;;;6208945;23;20213;-81
2022/12/04 07:51:42;;;;;;;73.95;42.58;;;2.60;1.00;;;;;;6197981;23;20210;-81
2022/12/04 07:54:10;;;;;;;72.05;41.75;;;2.60;1.00;;;;;;6208308;23;20293;-80
2022/12/04 07:56:43;;;;;;;81.72;45.10;;;2.60;1.00;;;;;;6222776;23;20219;-80
2022/12/04 07:59:12;;;;;;;83.10;43.10;;;2.60;1.00;;;;;;6210610;23;20249;-82
2022/12/04 08:01:39;;;;;;;64.88;40.50;;;2.50;1.00;;;;;;6222735;23;20210;-81
2022/12/04 08:04:08;;;;;;;75.57;43.90;;;2.60;1.00;;;;;;6224557;23;20210;-81
2022/12/04 08:06:36;;;;;;;76.88;42.10;;;2.60;1.00;;;;;;6225711;23;20684;-80
2022/12/04 08:09:08;;;;;;;75.32;44.25;;;2.60;1.00;;;;;;6223150;23;20271;-79
2022/12/04 08:11:36;;;;;;;76.43;44.17;;;2.60;1.00;;;;;;6226704;23;20216;-78
2022/12/04 08:14:08;;;;;;;71.95;43.33;;;2.60;1.00;;;;;;6226479;23;20194;-78
2022/12/04 08:16:35;;;;;;;75.20;42.47;;;2.60;1.00;;;;;;6227808;23;20298;-81
2022/12/04 08:19:09;;;;;;;74.50;44.47;;;2.60;1.00;;;;;;6228385;23;20210;-79
2022/12/04 08:21:38;;;;;;;68.75;43.30;;;2.70;1.00;;;;;;6229841;23;20219;-78
2022/12/04 08:24:05;;;;;;;67.65;41.92;;;2.70;1.00;;;;;;6223734;23;20215;-78
2022/12/04 08:26:33;;;;;;;82.75;45.30;;;2.70;1.00;;;;;;6224393;23;20285;-79
2022/12/04 08:29:02;;;;;;;68.82;40.80;;;2.80;1.00;;;;;;6222565;23;21002;-78
2022/12/04 08:31:32;;;;;;;77.68;43.97;;;2.80;1.00;;;;;;6221561;23;20219;-78
2022/12/04 08:34:01;;;;;;;71.57;42.50;;;2.90;1.00;;;;;;6223384;22;20218;-78
2022/12/04 08:36:29;;;;;;;86.38;46.40;;;2.90;1.00;;;;;;6209449;23;20682;-80
2022/12/04 08:38:59;;;;;;;76.85;43.63;;;2.80;1.00;;;;;;6227468;23;20932;-76
2022/12/04 08:41:27;;;;;;;74.38;43.60;;;2.90;1.00;;;;;;6223562;23;20220;-77
2022/12/04 08:43:55;;;;;;;76.78;42.17;;;2.80;1.00;;;;;;6223744;23;20214;-80
2022/12/04 08:46:26;;;;;;;67.93;42.05;;;2.70;1.00;;;;;;6225997;23;20214;-78
2022/12/04 08:48:54;;;;;;;78.97;45.03;;;2.70;1.00;;;;;;6228725;23;21001;-81
2022/12/04 08:51:23;;;;;;;81.32;45.88;;;2.70;1.00;;;;;;6228944;23;20210;-78
2022/12/04 08:53:54;;;;;;;75.07;43.47;;;2.80;1.00;;;;;;6229270;22;20210;-79
2022/12/04 08:56:24;;;;;;;71.18;45.70;;;2.80;1.00;;;;;;6230302;23;20220;-79
2022/12/04 08:58:53;;;;;;;62.08;40.67;;;2.90;1.00;;;;;;6228112;23;20318;-80
2022/12/04 09:01:20;;;;;;;75.20;42.25;;;2.80;1.00;;;;;;6232303;23;20223;-80
2022/12/04 09:03:53;;;;;;;72.65;42.30;;;2.80;1.00;;;;;;6215439;23;20734;-80
2022/12/04 09:06:21;;;;;;;70.40;39.92;;;2.70;1.00;;;;;;6228981;23;20223;-80
2022/12/04 09:08:48;;;;;;;72.38;42.47;;;2.80;1.00;;;;;;6237860;23;20737;-83
2022/12/04 09:11:17;;;;;;;68.90;41.25;;;2.90;1.00;;;;;;6235726;23;20211;-83
2022/12/04 09:13:48;;;;;;;74.88;42.58;;;2.80;1.00;;;;;;6237486;23;20262;-82
2022/12/04 09:16:21;;;;;;;71.65;42.92;;;2.70;1.00;;;;;;6234880;23;20223;-83
2022/12/04 09:18:52;;;;;;;69.20;41.70;;;2.70;1.00;;;;;;6217974;23;20220;-80
2022/12/04 09:21:23;;;;;;;69.68;43.40;;;2.70;1.00;;;;;;6224963;23;20229;-81
2022/12/04 09:23:53;;;;;;;71.97;42.80;;;2.70;1.00;;;;;;6210917;22;20221;-78
2022/12/04 09:26:25;;;;;;;75.60;40.42;;;2.70;1.00;;;;;;6211506;23;20216;-80
2022/12/04 09:28:54;;;;;;;68.35;41.45;;;2.70;1.00;;;;;;6233702;23;20223;-80
2022/12/04 09:31:23;;;;;;;70.43;39.95;;;2.70;1.00;;;;;;6218322;23;20236;-80
2022/12/04 09:33:55;;;;;;;66.15;40.33;;;2.70;1.00;;;;;;6203980;23;20210;-79
2022/12/04 09:36:25;;;;;;;76.30;41.50;;;2.80;1.00;;;;;;6209330;23;20213;-79
2022/12/04 09:38:54;;;;;;;70.20;41.97;;;2.80;1.00;;;;;;6227204;23;20206;-80
2022/12/04 09:41:48;;;;;;;67.40;38.55;;;2.80;1.00;;;;;;6213870;23;20289;-77
2022/12/04 09:44:23;;;;;;;62.45;39.05;;;2.80;1.00;;;;;;6227592;23;20215;-76
2022/12/04 09:46:55;;;;;;;68.57;40.22;;;2.90;1.00;;;;;;6214351;23;21001;-78
2022/12/04 09:49:29;;;;;;;69.05;41.13;;;2.90;1.00;;;;;;6196784;23;20259;-80
2022/12/04 09:52:03;;;;;;;72.22;41.17;;;2.80;1.00;;;;;;6223636;23;20220;-82
2022/12/04 09:54:34;;;;;;;71.78;42.50;;;2.80;1.00;;;;;;6195040;23;20253;-81
2022/12/04 09:57:06;;;;;;;64.55;38.75;;;2.90;1.00;;;;;;6180986;23;20349;-81
2022/12/04 09:59:34;;;;;;;75.47;43.08;;;3.00;1.00;;;;;;6209816;23;20211;-80
2022/12/04 10:02:12;;;;;;;66.38;39.28;;;3.00;1.00;;;;;;6224473;23;20709;-80
2022/12/04 10:04:41;;;;;;;71.15;40.22;;;3.00;1.00;;;;;;6226141;22;20258;-81
2022/12/04 10:07:19;;;;;;;67.07;41.20;;;3.10;1.00;;;;;;6223703;23;20250;-80
2022/12/04 10:09:55;;;;;;;67.47;38.53;;;3.20;1.00;;;;;;6221903;23;20216;-80
2022/12/04 10:12:31;;;;;;;65.75;37.30;;;3.10;1.00;;;;;;6222879;23;20220;-81
2022/12/04 10:15:07;;;;;;;64.63;41.38;;;3.00;1.00;;;;;;6224337;23;20221;-81
2022/12/04 10:17:51;;;;;;;62.95;38.83;;;3.00;1.00;;;;;;6224186;23;20228;-80
2022/12/04 10:20:38;;;;;;;58.03;36.92;;;3.00;1.00;;;;;;6222353;23;20638;-79
2022/12/04 10:23:16;;;;;;;66.25;39.15;;;3.00;1.00;;;;;;6224847;23;20254;-80
2022/12/04 10:25:54;;;;;;;61.95;37.70;;;3.00;1.00;;;;;;6228524;23;20217;-80
2022/12/04 10:28:27;;;;;;;62.92;38.05;;;3.00;1.00;;;;;;6227462;23;20215;-80
2022/12/04 10:31:00;;;;;;;62.00;35.75;;;3.00;1.00;;;;;;6226969;23;20203;-82
2022/12/04 10:33:42;;;;;;;63.38;38.60;;;2.90;1.00;;;;;;6227736;23;20395;-82
2022/12/04 10:36:20;;;;;;;61.75;38.45;;;2.90;1.00;;;;;;6228377;23;20213;-79
2022/12/04 10:38:55;;;;;;;68.32;41.13;;;2.90;1.00;;;;;;6229792;23;20303;-81
2022/12/04 10:41:28;;;;;;;69.45;39.45;;;2.90;1.00;;;;;;6227833;23;20273;-81
2022/12/04 10:43:57;;;;;;;65.88;39.20;;;2.90;1.00;;;;;;6229292;23;20212;-78
2022/12/04 10:46:27;;;;;;;64.93;37.67;;;2.80;1.00;;;;;;6231898;22;20218;-80
2022/12/04 10:49:05;;;;;;;57.90;36.17;;;2.80;1.00;;;;;;6234645;23;20211;-78
2022/12/04 10:51:41;;;;;;;66.45;38.15;;;2.80;1.00;;;;;;6229330;23;20215;-81
2022/12/04 10:54:20;;;;;;;61.95;39.60;;;2.80;1.00;;;;;;6233832;23;20214;-82
2022/12/04 10:56:59;;;;;;;63.90;39.17;;;2.90;1.00;;;;;;6234096;23;21016;-81
2022/12/04 10:59:27;;;;;;;68.55;38.03;;;2.90;1.00;;;;;;6216627;23;20194;-78
2022/12/04 11:02:02;;;;;;;61.78;37.55;;;2.90;1.00;;;;;;6229794;23;20214;-80
2022/12/04 11:04:36;;;;;;;62.60;39.42;;;2.90;1.00;;;;;;6233269;23;20260;-79
2022/12/04 11:07:21;;;;;;;69.82;42.53;;;2.80;1.00;;;;;;6213888;23;20217;-77
2022/12/04 11:10:03;;;;;;;74.45;39.20;;;2.90;1.00;;;;;;6230806;23;20356;-77
2022/12/04 11:12:35;;;;;;;60.25;37.60;;;2.90;1.00;;;;;;6229885;22;21093;-81
2022/12/04 11:15:17;;;;;;;62.92;38.40;;;3.00;1.00;;;;;;6220050;23;20223;-81
2022/12/04 11:17:45;;;;;;;62.05;36.75;;;3.10;1.00;;;;;;6228761;23;20269;-81
2022/12/04 11:20:21;;;;;;;59.33;39.20;;;3.10;1.00;;;;;;6230289;23;20273;-79
2022/12/04 11:22:59;;;;;;;58.17;36.53;;;3.20;1.00;;;;;;6232190;23;20214;-81
2022/12/04 11:25:30;;;;;;;59.50;38.00;;;3.30;1.00;;;;;;6239124;22;20225;-82
2022/12/04 11:28:06;;;;;;;59.60;37.25;;;3.30;1.00;;;;;;6240873;22;20262;-81
2022/12/04 11:30:39;;;;;;;52.75;34.90;;;3.20;1.00;;;;;;6237636;22;21000;-76
2022/12/04 11:33:20;;;;;;;60.05;39.03;;;3.10;1.00;;;;;;6233264;23;20218;-85
2022/12/04 11:35:58;;;;;;;59.40;36.60;;;3.10;1.00;;;;;;6230927;23;20744;-79
2022/12/04 11:38:29;;;;;;;52.92;33.42;;;3.20;1.00;;;;;;6234781;22;20210;-86
2022/12/04 11:40:59;;;;;;;59.70;37.10;;;3.10;1.00;;;;;;6238801;22;20203;-84
2022/12/04 11:43:28;;;;;;;61.90;37.35;;;3.10;1.00;;;;;;6230903;23;20212;-77
2022/12/04 11:45:59;;;;;;;58.28;35.63;;;3.10;1.00;;;;;;6236426;23;20224;-83
2022/12/04 11:48:28;;;;;;;54.78;33.22;;;3.10;1.00;;;;;;6239479;23;20215;-76
2022/12/04 11:51:05;;;;;;;57.97;35.88;;;3.10;1.00;;;;;;6236411;23;20210;-84
2022/12/04 11:53:44;;;;;;;61.25;35.03;;;3.10;1.00;;;;;;6239914;22;20427;-78
2022/12/04 11:56:26;;;;;;;60.70;36.13;;;3.10;1.00;;;;;;6229422;23;20214;-76
2022/12/04 11:59:23;;;;;;;60.42;34.63;;;3.20;1.00;;;;;;6229890;23;20246;-78
2022/12/04 12:02:01;;;;;;;55.78;33.92;;;3.20;1.00;;;;;;6237372;23;20267;-85
2022/12/04 12:05:00;;;;;;;58.95;37.17;;;3.20;1.00;;;;;;6237359;22;20210;-84
2022/12/04 12:07:38;;;;;;;58.15;33.55;;;3.30;1.00;;;;;;6187087;23;20227;-84
2022/12/04 12:10:16;;;;;;;60.25;35.95;;;3.30;1.00;;;;;;6233222;23;20234;-81
2022/12/04 12:13:06;;;;;;;57.03;36.35;;;3.30;1.00;;;;;;6238477;23;21073;-84
2022/12/04 12:15:48;;;;;;;54.30;34.30;;;3.30;1.00;;;;;;6234026;23;20187;-77
2022/12/04 12:18:30;;;;;;;60.97;36.00;;;3.30;1.00;;;;;;6230175;23;20212;-77
2022/12/04 12:21:05;;;;;;;55.17;37.40;;;3.20;1.00;;;;;;6234137;23;20195;-84
2022/12/04 12:23:49;;;;;;;58.72;36.70;;;3.20;1.00;;;;;;6236305;22;20264;-77
2022/12/04 12:26:19;;;;;;;58.88;37.70;;;3.20;1.00;;;;;;6229093;23;20218;-78
2022/12/04 12:29:04;;;;;;;55.53;36.03;;;3.20;1.00;;;;;;6229960;23;20710;-77
2022/12/04 12:31:49;;;;;;;60.53;37.90;;;3.20;1.00;;;;;;6228386;23;20559;-77
2022/12/04 12:34:23;;;;;;;56.13;38.30;;;3.20;1.00;;;;;;6229250;23;20235;-77
2022/12/04 12:36:56;;;;;;;57.92;36.38;;;3.30;1.00;;;;;;6230490;23;20260;-77
2022/12/04 12:39:40;;;;;;;53.45;37.00;;;3.30;1.00;;;;;;6227628;23;20219;-76
2022/12/04 12:42:22;;;;;;;56.25;37.78;;;3.30;1.00;;;;;;6227087;23;20985;-78
2022/12/04 12:45:02;;;;;;;61.80;38.25;;;3.30;1.00;;;;;;6230432;23;20269;-85
2022/12/04 12:47:37;;;;;;;62.92;37.15;;;3.30;1.00;;;;;;6229518;23;20873;-84
2022/12/04 12:50:10;;;;;;;55.97;34.63;;;3.20;1.00;;;;;;6228129;23;20214;-78
2022/12/04 12:52:46;;;;;;;63.97;36.78;;;3.20;1.00;;;;;;6231492;23;20872;-78
2022/12/04 12:55:26;;;;;;;63.38;38.42;;;3.20;1.00;;;;;;6226369;22;20199;-78
2022/12/04 12:58:04;;;;;;;60.20;34.20;;;3.30;1.00;;;;;;6232076;23;20202;-85
2022/12/04 13:00:39;;;;;;;64.97;37.85;;;3.40;1.00;;;;;;6234886;23;20229;-78
2022/12/04 13:03:20;;;;;;;58.35;35.60;;;3.40;1.00;;;;;;6232288;22;20633;-77
2022/12/04 13:05:57;;;;;;;60.22;36.70;;;3.40;1.00;;;;;;6207544;23;20942;-86
2022/12/04 13:08:28;;;;;;;56.65;37.67;;;3.50;1.00;;;;;;6231485;23;20217;-84
2022/12/04 13:11:05;;;;;;;55.38;34.30;;;3.50;1.00;;;;;;6237048;23;20223;-86
2022/12/04 13:13:44;;;;;;;56.40;34.80;;;3.40;1.00;;;;;;6236046;22;20281;-86
2022/12/04 13:16:19;;;;;;;59.03;36.92;;;3.50;1.00;;;;;;6232632;22;20937;-86
2022/12/04 13:19:02;;;;;;;60.53;35.05;;;3.40;1.00;;;;;;6230472;23;20963;-79
2022/12/04 13:21:59;;;;;;;77.30;48.97;;;3.50;1.00;;;;;;6232574;23;20219;-85
2022/12/04 13:24:47;;;;;;;59.40;34.53;;;3.50;1.00;;;;;;6229420;23;20315;-85
2022/12/04 13:27:23;;;;;;;53.28;34.72;;;3.40;1.00;;;;;;6227043;23;20202;-76
2022/12/04 13:30:07;;;;;;;59.63;36.58;;;3.30;1.00;;;;;;6231576;23;20261;-83
2022/12/04 13:33:07;;;;;;;66.22;37.40;;;3.30;1.00;;;;;;6231698;22;20206;-77